Gorgan, Iran
Current Conditions -  °F | °C
As of 7:00 AM on Sunday 23 Nov 2014 (Local Time) from OING Reporting Station
Scattered Clouds Scattered Clouds  
Wind Chill: 12°   Ceiling: Unl
Heat Index: 12°   Visibility: 4mi
Dew Point: 10°   Wind: 5mph
Humidity: 88%   Direction: 20°NNE
Pressure: 29.88"   Gusts: NA
Location:  36.83°N, 54.48°E
Report Text: OING 230400Z 02004KT 6000 FEW020 SCT080 12/10 Q1012
Loading
Personal Weather Stations






























Interactive Weather Map New forecast layout! Learn more

10-Day Weather Forecast

Advertisements
Track Severe Weather on mobile